createdAt,value
2022-08-27T00:00:51.824Z,90.00
2022-08-27T00:03:20.756Z,89.81
2022-08-27T00:05:49.596Z,89.26
2022-08-27T00:08:18.489Z,89.64
2022-08-27T00:10:50.382Z,89.97
2022-08-27T00:13:20.517Z,89.34
2022-08-27T00:15:49.691Z,88.49
2022-08-27T00:18:22.428Z,88.69
2022-08-27T00:20:52.246Z,88.27
2022-08-27T00:23:21.232Z,88.92
2022-08-27T00:25:50.710Z,89.94
2022-08-27T00:28:21.409Z,89.61
2022-08-27T00:30:50.518Z,90.23
2022-08-27T00:33:19.384Z,89.23
2022-08-27T00:35:48.914Z,89.36
2022-08-27T00:38:18.628Z,89.24
2022-08-27T00:40:47.768Z,88.69
2022-08-27T00:43:24.203Z,87.92
2022-08-27T00:45:55.334Z,87.66
2022-08-27T00:48:33.360Z,88.80
2022-08-27T00:51:02.628Z,88.79
2022-08-27T00:53:33.353Z,89.10
2022-08-27T00:56:08.477Z,87.81
2022-08-27T00:58:42.361Z,87.34
2022-08-27T01:01:15.718Z,87.13
2022-08-27T01:03:47.328Z,87.11
2022-08-27T01:06:17.299Z,87.17
2022-08-27T01:08:47.932Z,87.52
2022-08-27T01:11:16.777Z,87.92
2022-08-27T01:13:59.735Z,88.10
2022-08-27T01:16:34.846Z,88.23
2022-08-27T01:19:05.587Z,88.63
2022-08-27T01:21:37.433Z,88.54
2022-08-27T01:24:16.254Z,88.11
2022-08-27T01:26:46.389Z,88.66
2022-08-27T01:29:15.241Z,89.76
2022-08-27T01:31:44.390Z,89.19
2022-08-27T01:34:13.250Z,89.32
2022-08-27T01:36:42.015Z,88.85
2022-08-27T01:39:10.769Z,88.27
2022-08-27T01:41:41.665Z,88.51
2022-08-27T01:44:11.829Z,89.10
2022-08-27T01:46:40.591Z,89.61
2022-08-27T01:49:11.237Z,89.30
2022-08-27T01:51:40.264Z,89.05
2022-08-27T01:54:09.022Z,88.44
2022-08-27T01:56:38.098Z,88.28
2022-08-27T01:59:07.116Z,88.43
2022-08-27T02:01:37.256Z,87.54
2022-08-27T02:04:06.110Z,87.74
2022-08-27T02:06:34.877Z,88.12
2022-08-27T02:09:03.966Z,88.55
2022-08-27T02:11:32.658Z,88.60
2022-08-27T02:14:01.440Z,87.44
2022-08-27T02:16:52.034Z,87.60
2022-08-27T02:19:22.160Z,87.97
2022-08-27T02:21:51.053Z,88.20
2022-08-27T02:24:19.771Z,88.70
2022-08-27T02:26:48.460Z,88.43
2022-08-27T02:29:17.169Z,87.74
2022-08-27T02:31:47.620Z,87.27
2022-08-27T02:34:16.674Z,86.88
2022-08-27T02:36:45.488Z,87.30
2022-08-27T02:39:14.322Z,87.83
2022-08-27T02:41:43.077Z,87.81
2022-08-27T02:44:12.284Z,86.97
2022-08-27T02:46:42.714Z,87.08
2022-08-27T02:49:13.329Z,86.96
2022-08-27T02:51:42.109Z,87.67
2022-08-27T02:54:10.906Z,87.96
2022-08-27T02:56:40.624Z,86.33
2022-08-27T02:59:09.388Z,85.39
2022-08-27T03:01:38.241Z,86.31
2022-08-27T03:04:07.404Z,87.22
2022-08-27T03:06:37.521Z,86.07
2022-08-27T03:09:06.460Z,85.74
2022-08-27T03:11:35.185Z,86.59
2022-08-27T03:14:03.979Z,86.63
2022-08-27T03:16:35.295Z,85.68
2022-08-27T03:19:03.589Z,84.40
2022-08-27T03:21:32.631Z,85.24
2022-08-27T03:24:09.549Z,85.54
2022-08-27T03:26:41.087Z,86.64
2022-08-27T03:29:09.845Z,87.85
2022-08-27T03:31:38.956Z,87.46
2022-08-27T03:34:09.435Z,88.16
2022-08-27T03:36:38.202Z,88.21
2022-08-27T03:39:08.277Z,87.53
2022-08-27T03:41:45.602Z,87.42
2022-08-27T03:44:24.595Z,86.95
2022-08-27T03:46:53.573Z,87.19
2022-08-27T03:49:23.088Z,87.92
2022-08-27T03:51:53.973Z,88.10
2022-08-27T03:54:24.950Z,88.33
2022-08-27T03:56:53.820Z,88.71
2022-08-27T03:59:22.665Z,88.56
2022-08-27T04:01:51.784Z,88.62
2022-08-27T04:04:21.115Z,89.08
2022-08-27T04:06:49.783Z,88.57
2022-08-27T04:09:19.317Z,88.57
2022-08-27T04:11:49.376Z,88.43
2022-08-27T04:14:20.752Z,88.65
2022-08-27T04:16:56.979Z,88.69
2022-08-27T04:19:28.413Z,88.65
2022-08-27T04:22:02.352Z,88.81
2022-08-27T04:24:32.771Z,89.34
2022-08-27T04:27:04.187Z,88.73
2022-08-27T04:29:33.247Z,88.67
2022-08-27T04:32:02.752Z,87.47
2022-08-27T04:34:32.118Z,86.10
2022-08-27T04:37:01.493Z,85.26
2022-08-27T04:39:31.223Z,85.06
2022-08-27T04:42:03.000Z,85.65
2022-08-27T04:44:34.175Z,86.24
2022-08-27T04:47:04.666Z,86.78
2022-08-27T04:49:34.089Z,86.96
2022-08-27T04:52:03.137Z,87.31
2022-08-27T04:54:32.161Z,87.38
2022-08-27T04:57:04.480Z,88.04
2022-08-27T04:59:34.809Z,88.16
2022-08-27T05:02:04.789Z,88.40
2022-08-27T05:04:35.962Z,88.12
2022-08-27T05:07:04.941Z,87.91
2022-08-27T05:09:34.403Z,88.25
2022-08-27T05:12:04.997Z,87.94
2022-08-27T05:14:33.715Z,88.34
2022-08-27T05:17:03.356Z,87.69
2022-08-27T05:19:32.868Z,88.02
2022-08-27T05:22:01.607Z,88.43
2022-08-27T05:24:32.300Z,88.52
2022-08-27T05:27:01.375Z,88.52
2022-08-27T05:29:31.608Z,88.25
2022-08-27T05:32:00.352Z,88.26
2022-08-27T05:34:29.991Z,88.42
2022-08-27T05:36:59.179Z,88.83
2022-08-27T05:39:28.048Z,89.08
2022-08-27T05:41:57.817Z,88.79
2022-08-27T05:44:40.968Z,89.23
2022-08-27T05:47:12.265Z,88.50
2022-08-27T05:49:41.021Z,88.64
2022-08-27T05:52:10.883Z,88.60
2022-08-27T05:54:40.642Z,88.85
2022-08-27T05:57:09.420Z,88.16
2022-08-27T05:59:55.993Z,88.25
2022-08-27T06:02:26.477Z,88.50
2022-08-27T06:04:55.398Z,88.33
2022-08-27T06:07:24.321Z,87.93
2022-08-27T06:09:53.211Z,87.58
2022-08-27T06:12:27.086Z,87.41
2022-08-27T06:14:57.625Z,86.50
2022-08-27T06:17:28.100Z,85.47
2022-08-27T06:19:56.930Z,84.84
2022-08-27T06:22:25.717Z,83.76
2022-08-27T06:24:54.516Z,82.82
2022-08-27T06:27:23.302Z,82.08
2022-08-27T06:29:52.359Z,82.39
2022-08-27T06:32:21.107Z,82.83
2022-08-27T06:34:51.513Z,83.62
2022-08-27T06:37:20.344Z,83.79
2022-08-27T06:39:49.079Z,83.68
2022-08-27T06:42:18.124Z,83.97
2022-08-27T06:44:47.009Z,84.52
2022-08-27T06:47:15.757Z,85.24
2022-08-27T06:49:46.292Z,85.23
2022-08-27T06:52:16.740Z,85.16
2022-08-27T06:54:45.970Z,85.82
2022-08-27T06:57:14.682Z,86.09
2022-08-27T06:59:44.076Z,86.04
2022-08-27T07:02:12.908Z,85.59
2022-08-27T07:04:41.774Z,85.33
2022-08-27T07:07:12.121Z,85.75
2022-08-27T07:09:42.324Z,86.26
2022-08-27T07:12:11.121Z,86.39
2022-08-27T07:14:39.851Z,86.09
2022-08-27T07:17:10.756Z,86.14
2022-08-27T07:19:41.093Z,86.60
2022-08-27T07:22:10.820Z,86.53
2022-08-27T07:24:40.138Z,86.05
2022-08-27T07:27:10.830Z,86.81
2022-08-27T07:29:39.800Z,88.19
2022-08-27T07:32:08.605Z,88.64
2022-08-27T07:34:37.384Z,88.57
2022-08-27T07:37:06.480Z,88.48
2022-08-27T07:39:35.294Z,88.39
2022-08-27T07:42:21.443Z,87.43
2022-08-27T07:44:51.497Z,87.12
2022-08-27T07:47:20.473Z,87.61
2022-08-27T07:49:49.201Z,86.50
2022-08-27T07:52:18.546Z,86.35
2022-08-27T07:54:47.425Z,86.28
2022-08-27T07:57:16.408Z,86.00
2022-08-27T07:59:45.378Z,86.30
2022-08-27T08:02:15.572Z,86.13
2022-08-27T08:04:44.409Z,85.79
2022-08-27T08:07:13.710Z,85.66
2022-08-27T08:09:42.471Z,85.37
2022-08-27T08:12:11.225Z,86.00
2022-08-27T08:14:40.420Z,85.86
2022-08-27T08:17:10.396Z,86.28
2022-08-27T08:19:41.668Z,87.27
2022-08-27T08:22:10.458Z,87.24
2022-08-27T08:24:39.227Z,86.71
2022-08-27T08:27:08.118Z,86.88
2022-08-27T08:29:37.770Z,86.63
2022-08-27T08:32:08.312Z,86.42
2022-08-27T08:34:37.283Z,86.77
2022-08-27T08:37:07.888Z,86.20
2022-08-27T08:39:37.802Z,86.25
2022-08-27T08:42:08.817Z,86.91
2022-08-27T08:44:39.755Z,86.58
2022-08-27T08:47:11.959Z,86.72
2022-08-27T08:49:48.319Z,86.62
2022-08-27T08:52:31.622Z,86.94
2022-08-27T08:55:09.571Z,87.55
2022-08-27T08:57:42.244Z,87.23
2022-08-27T09:00:16.660Z,87.12
2022-08-27T09:02:54.417Z,88.48
2022-08-27T09:05:27.784Z,87.95
2022-08-27T09:08:31.030Z,88.58
2022-08-27T09:10:58.967Z,89.42
2022-08-27T09:13:30.758Z,88.73
2022-08-27T09:16:03.568Z,89.26
2022-08-27T09:18:35.152Z,89.63
2022-08-27T09:21:10.256Z,89.07
2022-08-27T09:23:46.660Z,89.98
2022-08-27T09:26:20.776Z,91.77
2022-08-27T09:29:07.513Z,90.56
2022-08-27T09:31:40.598Z,90.75
2022-08-27T09:34:09.580Z,93.06
2022-08-27T09:36:50.059Z,92.67
2022-08-27T09:39:20.175Z,92.74
2022-08-27T09:41:49.753Z,92.25
2022-08-27T09:44:20.317Z,91.00
2022-08-27T09:46:54.491Z,90.57
2022-08-27T09:49:24.141Z,90.61
2022-08-27T09:51:53.167Z,89.39
2022-08-27T09:54:38.334Z,88.87
2022-08-27T09:57:08.052Z,89.13
2022-08-27T09:59:38.611Z,90.75
2022-08-27T10:02:15.813Z,89.96
2022-08-27T10:04:50.939Z,89.09
2022-08-27T10:07:37.299Z,88.21
2022-08-27T10:10:12.970Z,89.19
2022-08-27T10:12:52.128Z,90.40
2022-08-27T10:15:21.103Z,91.84
2022-08-27T10:18:01.485Z,92.18
2022-08-27T10:20:36.519Z,92.51
2022-08-27T10:23:13.492Z,92.67
2022-08-27T10:25:50.286Z,92.39
2022-08-27T10:28:33.505Z,92.26
2022-08-27T10:31:11.450Z,93.56
2022-08-27T10:33:46.537Z,94.05
2022-08-27T10:36:26.234Z,92.61
2022-08-27T10:38:59.868Z,92.61
2022-08-27T10:41:35.097Z,93.78
2022-08-27T10:44:20.530Z,94.03
2022-08-27T10:47:06.255Z,94.57
2022-08-27T10:49:43.319Z,91.23
2022-08-27T10:52:18.583Z,91.00
2022-08-27T10:54:51.867Z,90.42
2022-08-27T10:57:40.210Z,91.39
2022-08-27T11:00:19.740Z,91.06
2022-08-27T11:02:53.936Z,91.88
2022-08-27T11:05:25.715Z,90.86
2022-08-27T11:07:57.125Z,91.06
2022-08-27T11:10:30.271Z,91.88
2022-08-27T11:13:05.433Z,91.15
2022-08-27T11:15:36.532Z,90.71
2022-08-27T11:18:07.415Z,90.51
2022-08-27T11:20:37.517Z,92.35
2022-08-27T11:23:09.635Z,92.48
2022-08-27T11:25:50.865Z,92.40
2022-08-27T11:28:29.693Z,92.08
2022-08-27T11:31:02.908Z,90.75
2022-08-27T11:33:37.754Z,92.72
2022-08-27T11:36:41.542Z,92.24
2022-08-27T11:39:21.427Z,92.71
2022-08-27T11:41:58.148Z,93.64
2022-08-27T11:44:28.485Z,93.47
2022-08-27T11:47:07.678Z,93.16
2022-08-27T11:49:42.386Z,94.44
2022-08-27T11:52:11.716Z,93.43
2022-08-27T11:54:50.239Z,93.39
2022-08-27T11:57:29.227Z,95.08
2022-08-27T12:00:00.976Z,94.83
2022-08-27T12:02:31.185Z,94.29
2022-08-27T12:05:08.951Z,94.03
2022-08-27T12:07:39.961Z,94.55
2022-08-27T12:10:30.816Z,94.81
2022-08-27T12:13:13.519Z,96.00
2022-08-27T12:15:52.433Z,95.75
2022-08-27T12:18:49.687Z,96.84
2022-08-27T12:21:26.559Z,95.33
2022-08-27T12:24:10.944Z,96.85
2022-08-27T12:26:42.699Z,94.76
2022-08-27T12:29:27.920Z,94.48
2022-08-27T12:32:05.283Z,95.72
2022-08-27T12:34:44.116Z,95.54
2022-08-27T12:37:14.458Z,97.47
2022-08-27T12:39:49.355Z,98.18
2022-08-27T12:42:20.217Z,96.93
2022-08-27T12:44:55.387Z,91.35
2022-08-27T12:47:25.723Z,92.46
2022-08-27T12:49:58.096Z,93.27
2022-08-27T12:52:44.184Z,91.86
2022-08-27T12:55:23.570Z,93.30
2022-08-27T12:57:58.530Z,91.54
2022-08-27T13:00:28.036Z,91.76
2022-08-27T13:03:10.526Z,91.81
2022-08-27T13:05:41.608Z,92.15
2022-08-27T13:08:20.208Z,91.92
2022-08-27T13:10:49.398Z,92.29
2022-08-27T13:13:22.126Z,92.14
2022-08-27T13:15:55.276Z,92.57
2022-08-27T13:18:29.920Z,92.85
2022-08-27T13:21:04.953Z,91.01
2022-08-27T13:23:35.425Z,91.58
2022-08-27T13:26:07.591Z,91.50
2022-08-27T13:28:38.783Z,93.29
2022-08-27T13:31:10.175Z,92.54
2022-08-27T13:33:41.367Z,92.36
2022-08-27T13:36:10.812Z,91.85
2022-08-27T13:38:45.494Z,92.30
2022-08-27T13:41:29.195Z,91.39
2022-08-27T13:43:59.764Z,90.61
2022-08-27T13:46:31.196Z,89.33
2022-08-27T13:49:02.053Z,91.11
2022-08-27T13:51:32.562Z,92.00
2022-08-27T13:54:13.694Z,92.07
2022-08-27T13:56:57.446Z,91.46
2022-08-27T13:59:28.142Z,90.38
2022-08-27T14:02:01.238Z,91.13
2022-08-27T14:04:38.767Z,92.17
2022-08-27T14:07:10.680Z,90.02
2022-08-27T14:09:46.105Z,88.74
2022-08-27T14:12:28.982Z,92.07
2022-08-27T14:15:15.074Z,90.79
2022-08-27T14:17:46.295Z,90.28
2022-08-27T14:20:17.541Z,90.12
2022-08-27T14:22:47.117Z,86.74
2022-08-27T14:25:16.445Z,88.65
2022-08-27T14:27:54.203Z,87.32
2022-08-27T14:30:29.922Z,86.26
2022-08-27T14:33:00.369Z,83.66
2022-08-27T14:35:32.249Z,84.15
2022-08-27T14:38:13.776Z,87.19
2022-08-27T14:40:43.319Z,83.56
2022-08-27T14:43:12.371Z,84.39
2022-08-27T14:45:41.977Z,82.46
2022-08-27T14:48:18.685Z,80.57
2022-08-27T14:50:54.914Z,84.21
2022-08-27T14:53:24.146Z,86.31
2022-08-27T14:55:53.106Z,87.49
2022-08-27T14:58:22.373Z,84.47
2022-08-27T15:00:52.130Z,83.91
2022-08-27T15:03:20.985Z,82.80
2022-08-27T15:05:49.822Z,83.55
2022-08-27T15:08:20.036Z,83.88
2022-08-27T15:10:51.174Z,85.34
2022-08-27T15:13:19.948Z,83.93
2022-08-27T15:15:48.776Z,83.02
2022-08-27T15:18:21.217Z,82.78
2022-08-27T15:20:50.595Z,83.65
2022-08-27T15:23:20.758Z,85.06
2022-08-27T15:25:49.715Z,83.98
2022-08-27T15:28:18.476Z,83.57
2022-08-27T15:30:47.226Z,83.76
2022-08-27T15:33:16.052Z,84.75
2022-08-27T15:35:44.868Z,83.67
2022-08-27T15:38:13.835Z,84.39
2022-08-27T15:40:44.128Z,85.07
2022-08-27T15:43:13.495Z,84.26
2022-08-27T15:45:42.255Z,84.10
2022-08-27T15:48:12.126Z,82.63
2022-08-27T15:50:41.383Z,83.75
2022-08-27T15:53:10.889Z,83.40
2022-08-27T15:55:41.264Z,83.29
2022-08-27T15:58:11.545Z,83.67
2022-08-27T16:00:41.250Z,82.14
2022-08-27T16:03:12.220Z,83.10
2022-08-27T16:05:43.346Z,82.27
2022-08-27T16:08:12.673Z,83.07
2022-08-27T16:10:41.532Z,82.91
2022-08-27T16:13:11.913Z,85.74
2022-08-27T16:15:41.754Z,86.05
2022-08-27T16:18:11.253Z,85.29
2022-08-27T16:20:42.317Z,85.53
2022-08-27T16:23:11.261Z,85.67
2022-08-27T16:25:40.327Z,84.81
2022-08-27T16:28:09.160Z,84.87
2022-08-27T16:30:39.372Z,82.94
2022-08-27T16:33:09.729Z,81.99
2022-08-27T16:35:38.557Z,83.02
2022-08-27T16:38:07.445Z,83.94
2022-08-27T16:40:40.369Z,85.27
2022-08-27T16:43:14.339Z,84.30
2022-08-27T16:45:44.598Z,84.17
2022-08-27T16:48:27.225Z,84.20
2022-08-27T16:50:56.004Z,84.07
2022-08-27T16:53:24.841Z,85.16
2022-08-27T16:55:53.714Z,85.25
2022-08-27T16:58:24.547Z,86.12
2022-08-27T17:00:56.802Z,85.38
2022-08-27T17:03:26.250Z,85.72
2022-08-27T17:05:55.040Z,85.35
2022-08-27T17:08:27.027Z,86.88
2022-08-27T17:10:57.173Z,86.55
2022-08-27T17:13:28.551Z,87.16
2022-08-27T17:16:01.436Z,85.98
2022-08-27T17:18:30.539Z,84.55
2022-08-27T17:21:02.242Z,84.43
2022-08-27T17:23:34.506Z,83.90
2022-08-27T17:26:05.613Z,84.36
2022-08-27T17:28:35.050Z,85.19
2022-08-27T17:31:05.459Z,83.74
2022-08-27T17:33:38.076Z,83.54
2022-08-27T17:36:09.353Z,85.72
2022-08-27T17:38:38.930Z,85.44
2022-08-27T17:41:13.375Z,83.55
2022-08-27T17:43:43.358Z,82.77
2022-08-27T17:46:13.856Z,81.98
2022-08-27T17:48:43.271Z,82.21
2022-08-27T17:51:14.442Z,82.62
2022-08-27T17:53:47.993Z,82.57
2022-08-27T17:56:18.576Z,83.60
2022-08-27T17:58:47.636Z,83.53
2022-08-27T18:01:18.777Z,84.25
2022-08-27T18:03:49.489Z,84.47
2022-08-27T18:06:19.033Z,85.03
2022-08-27T18:08:48.025Z,85.86
2022-08-27T18:11:16.814Z,85.45
2022-08-27T18:13:48.226Z,86.31
2022-08-27T18:16:18.534Z,86.20
2022-08-27T18:18:47.593Z,86.33
2022-08-27T18:21:20.792Z,86.83
2022-08-27T18:23:54.475Z,86.40
2022-08-27T18:26:25.117Z,87.18
2022-08-27T18:28:53.919Z,87.50
2022-08-27T18:31:28.823Z,87.78
2022-08-27T18:33:58.084Z,87.16
2022-08-27T18:36:27.850Z,87.40
2022-08-27T18:38:56.743Z,88.10
2022-08-27T18:41:25.920Z,88.07
2022-08-27T18:43:54.692Z,88.55
2022-08-27T18:46:25.425Z,89.18
2022-08-27T18:48:54.427Z,89.36
2022-08-27T18:51:23.475Z,90.11
2022-08-27T18:53:52.224Z,90.10
2022-08-27T18:56:21.577Z,90.43
2022-08-27T18:58:50.349Z,90.71
2022-08-27T19:01:21.837Z,90.88
2022-08-27T19:03:52.927Z,91.11
2022-08-27T19:06:22.597Z,90.89
2022-08-27T19:08:51.919Z,91.30
2022-08-27T19:11:20.845Z,91.38
2022-08-27T19:13:50.480Z,91.85
2022-08-27T19:16:22.042Z,92.13
2022-08-27T19:18:52.843Z,92.51
2022-08-27T19:21:21.718Z,92.88
2022-08-27T19:23:52.713Z,93.34
2022-08-27T19:26:25.750Z,93.49
2022-08-27T19:28:54.829Z,93.50
2022-08-27T19:31:23.927Z,93.32
2022-08-27T19:33:54.751Z,93.60
2022-08-27T19:36:24.230Z,93.71
2022-08-27T19:38:56.743Z,94.13
2022-08-27T19:41:27.986Z,94.29
2022-08-27T19:43:57.046Z,94.11
2022-08-27T19:46:26.916Z,93.91
2022-08-27T19:48:58.132Z,93.88
2022-08-27T19:51:27.059Z,93.79
2022-08-27T19:53:55.975Z,94.03
2022-08-27T19:56:25.134Z,93.94
2022-08-27T19:58:57.594Z,94.11
2022-08-27T20:01:28.828Z,93.79
2022-08-27T20:03:59.143Z,94.69
2022-08-27T20:06:29.652Z,94.51
2022-08-27T20:08:58.725Z,94.21
2022-08-27T20:11:27.576Z,93.78
2022-08-27T20:13:58.615Z,93.78
2022-08-27T20:16:27.515Z,93.92
2022-08-27T20:18:59.670Z,94.21
2022-08-27T20:21:31.001Z,94.21
2022-08-27T20:23:59.883Z,94.83
2022-08-27T20:26:30.690Z,95.14
2022-08-27T20:28:59.736Z,95.78
2022-08-27T20:31:29.560Z,95.86
2022-08-27T20:33:58.559Z,96.13
2022-08-27T20:36:31.603Z,96.18
2022-08-27T20:39:00.825Z,96.26
2022-08-27T20:41:30.153Z,96.67
2022-08-27T20:43:59.407Z,97.01
2022-08-27T20:46:30.585Z,96.93
2022-08-27T20:48:59.397Z,97.21
2022-08-27T20:51:29.434Z,97.36
2022-08-27T20:54:00.994Z,96.98
2022-08-27T20:56:30.231Z,97.08
2022-08-27T20:59:16.942Z,97.35
2022-08-27T21:01:45.948Z,97.26
2022-08-27T21:04:14.844Z,97.63
2022-08-27T21:06:43.662Z,97.59
2022-08-27T21:09:13.932Z,98.04
2022-08-27T21:11:42.708Z,97.98
2022-08-27T21:14:11.448Z,98.06
2022-08-27T21:16:41.163Z,98.16
2022-08-27T21:19:10.626Z,98.61
2022-08-27T21:21:39.545Z,98.45
2022-08-27T21:24:09.441Z,98.45
2022-08-27T21:26:39.578Z,98.67
2022-08-27T21:29:08.448Z,98.67
2022-08-27T21:31:37.323Z,98.51
2022-08-27T21:34:06.172Z,98.79
2022-08-27T21:36:35.176Z,98.71
2022-08-27T21:39:04.238Z,99.17
2022-08-27T21:41:37.317Z,98.78
2022-08-27T21:44:07.874Z,98.96
2022-08-27T21:46:37.203Z,99.13
2022-08-27T21:49:06.137Z,98.72
2022-08-27T21:51:35.367Z,99.01
2022-08-27T21:54:04.349Z,98.41
2022-08-27T21:56:33.872Z,98.24
2022-08-27T21:59:02.589Z,98.58
2022-08-27T22:01:33.017Z,98.50
2022-08-27T22:04:02.151Z,98.59
2022-08-27T22:06:31.063Z,98.31
2022-08-27T22:08:59.824Z,98.71
2022-08-27T22:11:30.703Z,98.75
2022-08-27T22:13:59.553Z,98.95
2022-08-27T22:16:29.119Z,98.81
2022-08-27T22:18:59.336Z,99.22
2022-08-27T22:21:28.334Z,98.97
2022-08-27T22:23:57.442Z,99.65
2022-08-27T22:26:26.331Z,99.93
2022-08-27T22:28:55.047Z,98.97
2022-08-27T22:31:24.203Z,99.36
2022-08-27T22:33:53.483Z,99.28
2022-08-27T22:36:23.905Z,99.30
2022-08-27T22:38:52.764Z,99.28
2022-08-27T22:41:21.482Z,99.25
2022-08-27T22:43:51.375Z,99.43
2022-08-27T22:46:25.475Z,99.49
2022-08-27T22:48:54.277Z,100.00
2022-08-27T22:51:24.470Z,100.00
2022-08-27T22:53:53.322Z,100.00
2022-08-27T22:56:22.277Z,100.00
2022-08-27T22:58:51.086Z,99.76
2022-08-27T23:01:20.062Z,99.21
2022-08-27T23:03:49.116Z,99.26
2022-08-27T23:06:18.446Z,98.77
2022-08-27T23:08:48.813Z,98.57
2022-08-27T23:11:17.691Z,99.01
2022-08-27T23:13:47.086Z,99.69
2022-08-27T23:16:16.820Z,100.00
2022-08-27T23:18:45.712Z,100.00
2022-08-27T23:21:15.374Z,100.00
2022-08-27T23:23:44.207Z,100.00
2022-08-27T23:26:32.197Z,100.00
2022-08-27T23:29:00.929Z,100.00
2022-08-27T23:31:29.931Z,100.00
2022-08-27T23:33:58.937Z,99.93
2022-08-27T23:36:29.138Z,99.50
2022-08-27T23:38:58.547Z,99.21
2022-08-27T23:41:29.020Z,99.35
2022-08-27T23:43:58.217Z,99.40
2022-08-27T23:46:27.045Z,99.15
2022-08-27T23:48:56.392Z,99.56
2022-08-27T23:51:25.305Z,99.52
2022-08-27T23:53:54.130Z,99.53
2022-08-27T23:56:22.898Z,99.90
2022-08-27T23:59:00.575Z,100.00
